createdAt,value
2022-12-29T00:02:54.101Z,5.70
2022-12-29T00:06:57.186Z,5.43
2022-12-29T00:11:01.685Z,6.63
2022-12-29T00:15:22.840Z,6.17
2022-12-29T00:19:43.381Z,6.20
2022-12-29T00:24:03.723Z,6.57
2022-12-29T00:28:27.745Z,6.67
2022-12-29T00:32:48.060Z,6.00
2022-12-29T00:36:51.797Z,6.20
2022-12-29T00:41:12.176Z,6.60
2022-12-29T00:45:16.692Z,6.50
2022-12-29T00:49:33.135Z,5.67
2022-12-29T00:53:37.631Z,6.00
2022-12-29T00:57:40.677Z,5.80
2022-12-29T01:01:45.442Z,5.10
2022-12-29T01:05:48.788Z,5.10
2022-12-29T01:10:09.324Z,5.47
2022-12-29T01:14:13.033Z,4.80
2022-12-29T01:18:17.481Z,4.83
2022-12-29T01:22:21.280Z,5.43
2022-12-29T01:26:24.811Z,5.80
2022-12-29T01:30:28.828Z,4.83
2022-12-29T01:34:33.263Z,4.87
2022-12-29T01:38:39.493Z,5.00
2022-12-29T01:42:42.557Z,4.70
2022-12-29T01:46:50.409Z,4.93
2022-12-29T01:50:55.773Z,4.30
2022-12-29T01:55:00.378Z,4.73
2022-12-29T01:59:07.539Z,4.60
2022-12-29T02:03:12.391Z,4.77
2022-12-29T02:07:20.864Z,4.73
2022-12-29T02:11:27.310Z,4.30
2022-12-29T02:15:40.729Z,4.43
2022-12-29T02:20:08.499Z,4.43
2022-12-29T02:24:50.378Z,4.73
2022-12-29T02:29:22.333Z,4.40
2022-12-29T02:33:44.585Z,4.73
2022-12-29T02:38:00.557Z,4.30
2022-12-29T02:42:11.181Z,4.40
2022-12-29T02:46:21.836Z,4.87
2022-12-29T02:50:33.929Z,4.67
2022-12-29T02:54:43.850Z,4.43
2022-12-29T02:58:49.885Z,4.27
2022-12-29T03:03:17.177Z,4.93
2022-12-29T03:07:31.646Z,4.63
2022-12-29T03:12:01.158Z,4.37
2022-12-29T03:16:09.525Z,4.10
2022-12-29T03:20:20.673Z,4.87
2022-12-29T03:24:31.764Z,4.70
2022-12-29T03:28:40.702Z,4.70
2022-12-29T03:32:51.050Z,4.50
2022-12-29T03:37:02.120Z,4.87
2022-12-29T03:41:10.125Z,4.77
2022-12-29T03:45:13.475Z,4.70
2022-12-29T03:49:17.283Z,5.03
2022-12-29T03:53:21.372Z,4.70
2022-12-29T03:57:26.057Z,4.67
2022-12-29T04:01:39.254Z,4.70
2022-12-29T04:05:42.518Z,5.03
2022-12-29T04:09:45.857Z,4.90
2022-12-29T04:13:59.648Z,4.60
2022-12-29T04:18:04.241Z,4.37
2022-12-29T04:22:07.451Z,4.83
2022-12-29T04:26:11.401Z,5.43
2022-12-29T04:30:27.682Z,4.90
2022-12-29T04:34:41.344Z,4.67
2022-12-29T04:38:44.660Z,5.33
2022-12-29T04:42:47.737Z,5.27
2022-12-29T04:46:52.523Z,4.60
2022-12-29T04:51:09.003Z,4.93
2022-12-29T04:55:15.095Z,4.07
2022-12-29T04:59:18.192Z,5.00
2022-12-29T05:03:26.486Z,4.50
2022-12-29T05:07:29.613Z,5.30
2022-12-29T05:11:32.791Z,5.03
2022-12-29T05:15:37.549Z,4.83
2022-12-29T05:19:42.028Z,4.57
2022-12-29T05:23:45.187Z,5.03
2022-12-29T05:27:48.679Z,4.63
2022-12-29T05:32:00.779Z,5.33
2022-12-29T05:36:08.318Z,5.20
2022-12-29T05:40:13.889Z,5.57
2022-12-29T05:44:17.917Z,5.00
2022-12-29T05:48:40.003Z,5.67
2022-12-29T05:52:53.421Z,5.33
2022-12-29T05:56:57.229Z,5.30
2022-12-29T06:01:00.504Z,5.77
2022-12-29T06:05:03.731Z,5.97
2022-12-29T06:09:08.559Z,5.97
2022-12-29T06:13:11.882Z,5.53
2022-12-29T06:17:19.201Z,6.43
2022-12-29T06:21:22.449Z,6.53
2022-12-29T06:25:27.753Z,6.13
2022-12-29T06:29:31.249Z,6.60
2022-12-29T06:33:34.565Z,6.43
2022-12-29T06:37:37.675Z,6.70
2022-12-29T06:41:42.114Z,6.47
2022-12-29T06:46:05.782Z,7.03
2022-12-29T06:50:09.576Z,6.63
2022-12-29T06:54:12.678Z,6.90
2022-12-29T06:58:17.302Z,6.70
2022-12-29T07:02:20.665Z,7.57
2022-12-29T07:06:24.095Z,6.70
2022-12-29T07:10:27.207Z,7.27
2022-12-29T07:14:34.718Z,8.13
2022-12-29T07:18:42.248Z,7.77
2022-12-29T07:22:45.382Z,8.07
2022-12-29T07:26:48.673Z,7.83
2022-12-29T07:30:53.176Z,8.27
2022-12-29T07:34:56.208Z,8.00
2022-12-29T07:38:59.348Z,8.47
2022-12-29T07:43:02.429Z,7.90
2022-12-29T07:47:18.558Z,8.40
2022-12-29T07:51:21.558Z,8.63
2022-12-29T07:55:24.840Z,8.53
2022-12-29T07:59:27.956Z,9.57
2022-12-29T08:03:32.646Z,8.53
2022-12-29T08:07:35.906Z,9.93
2022-12-29T08:11:39.537Z,9.10
2022-12-29T08:15:42.737Z,8.70
2022-12-29T08:19:47.423Z,8.47
2022-12-29T08:23:50.468Z,8.90
2022-12-29T08:27:53.514Z,8.93
2022-12-29T08:31:56.781Z,10.57
2022-12-29T08:36:03.918Z,10.70
2022-12-29T08:40:08.433Z,10.53
2022-12-29T08:44:14.316Z,10.73
2022-12-29T08:48:20.761Z,10.20
2022-12-29T08:52:25.221Z,11.23
2022-12-29T08:56:28.757Z,10.00
2022-12-29T09:00:34.038Z,10.47
2022-12-29T09:04:37.282Z,9.87
2022-12-29T09:08:42.139Z,9.43
2022-12-29T09:12:45.245Z,9.83
2022-12-29T09:17:05.670Z,10.10
2022-12-29T09:21:09.628Z,10.30
2022-12-29T09:25:16.886Z,10.87
2022-12-29T09:29:19.984Z,10.63
2022-12-29T09:33:23.335Z,11.17
2022-12-29T09:37:26.616Z,10.63
2022-12-29T09:41:36.862Z,10.97
2022-12-29T09:45:45.213Z,11.10
2022-12-29T09:49:52.068Z,11.07
2022-12-29T09:54:00.558Z,11.00
2022-12-29T09:58:07.970Z,10.33
2022-12-29T10:02:24.832Z,10.37
2022-12-29T10:06:36.156Z,11.60
2022-12-29T10:10:52.740Z,10.87
2022-12-29T10:15:05.744Z,10.43
2022-12-29T10:19:33.367Z,11.80
2022-12-29T10:23:41.252Z,11.70
2022-12-29T10:27:45.744Z,10.60
2022-12-29T10:31:56.389Z,12.33
2022-12-29T10:36:00.301Z,11.77
2022-12-29T10:40:16.934Z,11.10
2022-12-29T10:44:22.279Z,11.30
2022-12-29T10:48:31.965Z,11.77
2022-12-29T10:52:36.960Z,11.13
2022-12-29T10:56:45.988Z,11.40
2022-12-29T11:00:53.267Z,10.47
2022-12-29T11:05:04.770Z,11.47
2022-12-29T11:09:15.938Z,11.43
2022-12-29T11:13:22.083Z,11.30
2022-12-29T11:17:25.190Z,11.27
2022-12-29T11:21:35.201Z,12.13
2022-12-29T11:25:38.217Z,11.47
2022-12-29T11:29:42.699Z,11.40
2022-12-29T11:33:45.862Z,11.33
2022-12-29T11:37:58.307Z,11.63
2022-12-29T11:42:03.449Z,11.07
2022-12-29T11:46:08.195Z,11.97
2022-12-29T11:50:21.215Z,10.60
2022-12-29T11:54:29.389Z,10.50
2022-12-29T11:58:33.654Z,9.67
2022-12-29T12:02:44.597Z,10.97
2022-12-29T12:06:55.506Z,10.45
2022-12-29T12:11:09.035Z,9.57
2022-12-29T12:15:20.608Z,9.53
2022-12-29T12:19:36.918Z,9.57
2022-12-29T12:23:54.948Z,10.50
2022-12-29T12:28:04.119Z,10.43
2022-12-29T12:32:15.042Z,10.73
2022-12-29T12:36:35.412Z,11.07
2022-12-29T12:41:00.289Z,10.80
2022-12-29T12:45:36.479Z,10.15
2022-12-29T12:50:15.110Z,10.63
2022-12-29T12:54:37.531Z,9.37
2022-12-29T12:58:48.202Z,10.07
2022-12-29T13:03:07.215Z,9.73
2022-12-29T13:07:22.806Z,10.40
2022-12-29T13:11:37.670Z,10.88
2022-12-29T13:15:49.944Z,10.63
2022-12-29T13:20:02.017Z,10.15
2022-12-29T13:24:15.103Z,10.98
2022-12-29T13:28:26.304Z,10.60
2022-12-29T13:32:40.883Z,11.75
2022-12-29T13:36:48.970Z,10.10
2022-12-29T13:40:55.262Z,10.82
2022-12-29T13:45:03.906Z,12.00
2022-12-29T13:49:10.577Z,11.27
2022-12-29T13:53:22.093Z,10.93
2022-12-29T13:57:39.172Z,10.60
2022-12-29T14:01:49.067Z,9.95
2022-12-29T14:06:07.580Z,11.02
2022-12-29T14:10:34.797Z,11.30
2022-12-29T14:14:47.271Z,11.02
2022-12-29T14:18:50.383Z,10.30
2022-12-29T14:23:02.893Z,11.30
2022-12-29T14:28:04.117Z,11.23
2022-12-29T14:32:43.025Z,12.23
2022-12-29T14:36:57.397Z,10.88
2022-12-29T14:41:34.066Z,10.68
2022-12-29T14:45:42.994Z,10.93
2022-12-29T14:49:47.679Z,9.40
2022-12-29T14:53:52.866Z,10.55
2022-12-29T14:58:01.622Z,11.77
2022-12-29T15:02:18.117Z,11.60
2022-12-29T15:06:23.328Z,11.55
2022-12-29T15:10:29.087Z,12.20
2022-12-29T15:14:37.746Z,11.35
2022-12-29T15:18:43.644Z,10.90
2022-12-29T15:22:51.321Z,11.38
2022-12-29T15:26:56.503Z,10.57
2022-12-29T15:31:08.680Z,11.35
2022-12-29T15:35:31.864Z,12.00
2022-12-29T15:39:35.659Z,10.05
2022-12-29T15:43:53.491Z,10.17
2022-12-29T15:47:58.415Z,11.25
2022-12-29T15:52:07.952Z,11.20
2022-12-29T15:56:12.559Z,10.82
2022-12-29T16:00:26.852Z,11.40
2022-12-29T16:04:43.238Z,11.68
2022-12-29T16:09:00.409Z,11.63
2022-12-29T16:13:06.677Z,11.53
2022-12-29T16:17:20.274Z,11.27
2022-12-29T16:21:27.609Z,12.03
2022-12-29T16:25:38.464Z,12.00
2022-12-29T16:29:42.068Z,11.13
2022-12-29T16:33:49.213Z,11.63
2022-12-29T16:38:14.417Z,12.17
2022-12-29T16:42:38.771Z,10.70
2022-12-29T16:46:47.486Z,11.63
2022-12-29T16:50:51.725Z,13.10
2022-12-29T16:54:58.226Z,12.33
2022-12-29T16:59:07.004Z,10.17
2022-12-29T17:03:12.354Z,10.97
2022-12-29T17:07:19.330Z,11.30
2022-12-29T17:11:50.165Z,12.00
2022-12-29T17:15:57.231Z,12.13
2022-12-29T17:20:05.430Z,12.27
2022-12-29T17:24:15.687Z,10.47
2022-12-29T17:28:23.568Z,11.50
2022-12-29T17:32:28.157Z,10.97
2022-12-29T17:36:31.153Z,11.43
2022-12-29T17:40:34.963Z,11.23
2022-12-29T17:44:38.034Z,10.87
2022-12-29T17:48:44.655Z,10.70
2022-12-29T17:53:00.196Z,10.63
2022-12-29T17:57:03.917Z,10.40
2022-12-29T18:01:07.632Z,10.67
2022-12-29T18:05:19.214Z,10.80
2022-12-29T18:09:22.851Z,10.63
2022-12-29T18:13:35.739Z,11.93
2022-12-29T18:17:44.878Z,10.67
2022-12-29T18:21:49.232Z,11.33
2022-12-29T18:25:56.913Z,10.53
2022-12-29T18:29:59.919Z,11.37
2022-12-29T18:34:06.372Z,11.13
2022-12-29T18:38:10.835Z,11.43
2022-12-29T18:42:18.605Z,11.27
2022-12-29T18:46:23.386Z,11.43
2022-12-29T18:50:26.950Z,10.90
2022-12-29T18:54:33.019Z,10.97
2022-12-29T18:58:36.041Z,10.80
2022-12-29T19:02:39.185Z,10.90
2022-12-29T19:06:42.236Z,11.83
2022-12-29T19:10:46.726Z,11.45
2022-12-29T19:14:49.834Z,11.67
2022-12-29T19:19:08.456Z,10.57
2022-12-29T19:23:13.888Z,11.07
2022-12-29T19:27:18.651Z,11.23
2022-12-29T19:31:21.811Z,10.63
2022-12-29T19:35:29.208Z,10.67
2022-12-29T19:39:32.210Z,10.00
2022-12-29T19:43:36.823Z,10.43
2022-12-29T19:47:39.894Z,9.70
2022-12-29T19:51:42.882Z,10.97
2022-12-29T19:55:46.850Z,10.60
2022-12-29T19:59:51.266Z,11.10
2022-12-29T20:03:54.282Z,12.53
2022-12-29T20:07:57.273Z,11.43
2022-12-29T20:12:00.385Z,11.47
2022-12-29T20:16:07.641Z,10.87
2022-12-29T20:20:11.140Z,11.77
2022-12-29T20:24:14.161Z,11.88
2022-12-29T20:28:17.344Z,11.37
2022-12-29T20:32:25.276Z,11.50
2022-12-29T20:36:31.024Z,12.23
2022-12-29T20:40:36.079Z,12.30
2022-12-29T20:44:45.457Z,10.90
2022-12-29T20:48:51.616Z,12.52
2022-12-29T20:52:54.744Z,12.40
2022-12-29T20:56:58.047Z,12.60
2022-12-29T21:01:03.794Z,13.10
2022-12-29T21:05:25.650Z,12.30
2022-12-29T21:09:28.924Z,12.43
2022-12-29T21:13:32.230Z,12.23
2022-12-29T21:17:35.243Z,11.90
2022-12-29T21:21:39.644Z,12.37
2022-12-29T21:25:44.962Z,12.53
2022-12-29T21:29:48.012Z,12.23
2022-12-29T21:33:52.000Z,13.20
2022-12-29T21:37:56.395Z,13.68
2022-12-29T21:42:00.465Z,13.37
2022-12-29T21:46:04.120Z,12.90
2022-12-29T21:50:07.659Z,12.27
2022-12-29T21:54:29.853Z,14.18
2022-12-29T21:58:50.189Z,13.07
2022-12-29T22:03:18.294Z,12.63
2022-12-29T22:07:42.948Z,14.10
2022-12-29T22:12:04.800Z,12.15
2022-12-29T22:16:10.434Z,14.20
2022-12-29T22:20:13.895Z,13.90
2022-12-29T22:24:17.008Z,13.50
2022-12-29T22:28:21.825Z,14.48
2022-12-29T22:32:24.895Z,13.52
2022-12-29T22:36:29.179Z,13.37
2022-12-29T22:40:32.182Z,13.60
2022-12-29T22:44:36.584Z,15.10
2022-12-29T22:48:39.681Z,13.10
2022-12-29T22:52:42.685Z,13.70
2022-12-29T22:56:45.874Z,13.43
2022-12-29T23:00:50.304Z,13.97
2022-12-29T23:05:08.709Z,12.70
2022-12-29T23:09:17.218Z,13.90
2022-12-29T23:13:20.417Z,13.63
2022-12-29T23:17:25.148Z,13.77
2022-12-29T23:21:28.472Z,13.30
2022-12-29T23:25:31.871Z,12.82
2022-12-29T23:29:34.882Z,12.20
2022-12-29T23:33:39.270Z,11.77
2022-12-29T23:37:42.386Z,12.02
2022-12-29T23:41:45.363Z,12.40
2022-12-29T23:45:51.077Z,11.83
2022-12-29T23:49:55.803Z,12.70
2022-12-29T23:53:58.827Z,11.97
2022-12-29T23:58:02.034Z,11.53
